Time;durP1;ratioP1;P1;durP2;ratioP2;P2;SDS_P1;SDS_P2;PMS_P1;PMS_P2;Temp;Humidity;BMP_temperature;BMP_pressure;BME280_temperature;BME280_humidity;BME280_pressure;Samples;Min_cycle;Max_cycle;Signal;HPM_P1;HPM_P2
2024/02/22 00:02:03;;;;;;;41.17;22.42;;;;;;;;;;5096944;28;20060;-63
2024/02/22 00:04:29;;;;;;;36.85;20.33;;;;;;;;;;5078897;28;20431;-63
2024/02/22 00:06:54;;;;;;;34.05;20.58;;;;;;;;;;5078763;28;20386;-63
2024/02/22 00:09:20;;;;;;;39.85;21.10;;;;;;;;;;5097542;28;20020;-63
2024/02/22 00:11:45;;;;;;;37.08;19.83;;;;;;;;;;5096804;28;20461;-62
2024/02/22 00:14:13;;;;;;;33.40;19.80;;;;;;;;;;5097395;28;20047;-62
2024/02/22 00:16:39;;;;;;;33.30;18.92;;;;;;;;;;5097042;28;20153;-62
2024/02/22 00:19:04;;;;;;;30.25;17.20;;;;;;;;;;5097013;28;20397;-62
2024/02/22 00:21:30;;;;;;;27.75;15.63;;;;;;;;;;5096592;28;20024;-62
2024/02/22 00:23:55;;;;;;;26.75;16.77;;;;;;;;;;5096937;28;20543;-63
2024/02/22 00:26:22;;;;;;;30.95;17.77;;;;;;;;;;5078322;28;20024;-63
2024/02/22 00:28:48;;;;;;;28.63;17.77;;;;;;;;;;5097105;28;20086;-63
2024/02/22 00:31:13;;;;;;;30.70;17.65;;;;;;;;;;5096763;28;20020;-62
2024/02/22 00:33:39;;;;;;;26.73;17.05;;;;;;;;;;5097036;28;20073;-62
2024/02/22 00:36:05;;;;;;;21.08;13.52;;;;;;;;;;5096933;28;20366;-62
2024/02/22 00:38:31;;;;;;;25.20;13.98;;;;;;;;;;5078128;28;20439;-62
2024/02/22 00:40:57;;;;;;;27.40;15.07;;;;;;;;;;5096253;28;20020;-62
2024/02/22 00:43:22;;;;;;;24.08;15.73;;;;;;;;;;5096449;28;20377;-62
2024/02/22 00:45:48;;;;;;;18.13;11.55;;;;;;;;;;5078393;28;20027;-62
2024/02/22 00:48:13;;;;;;;20.80;12.82;;;;;;;;;;5096309;28;20047;-62
2024/02/22 00:50:39;;;;;;;19.00;13.38;;;;;;;;;;5096943;28;20369;-62
2024/02/22 00:53:04;;;;;;;34.08;19.65;;;;;;;;;;5096575;28;20039;-62
2024/02/22 00:55:30;;;;;;;50.63;27.38;;;;;;;;;;5096587;28;20420;-62
2024/02/22 00:57:55;;;;;;;67.85;34.00;;;;;;;;;;5078480;28;20028;-62
2024/02/22 01:00:20;;;;;;;30.38;17.48;;;;;;;;;;5095973;28;20466;-62
2024/02/22 01:02:46;;;;;;;26.25;14.70;;;;;;;;;;5096102;28;20050;-62
2024/02/22 01:05:12;;;;;;;21.10;12.13;;;;;;;;;;5096423;28;20058;-62
2024/02/22 01:07:37;;;;;;;16.38;10.32;;;;;;;;;;5096327;28;20366;-62
2024/02/22 01:10:03;;;;;;;12.48;9.27;;;;;;;;;;5077608;28;20020;-62
2024/02/22 01:12:29;;;;;;;20.60;12.20;;;;;;;;;;5076635;28;20408;-62
2024/02/22 01:14:54;;;;;;;19.35;12.63;;;;;;;;;;5096204;28;20024;-62
2024/02/22 01:17:20;;;;;;;16.00;8.93;;;;;;;;;;5095532;28;20474;-62
2024/02/22 01:19:45;;;;;;;11.27;6.80;;;;;;;;;;5096026;28;20020;-62
2024/02/22 01:22:13;;;;;;;12.25;7.90;;;;;;;;;;5095711;28;20032;-62
2024/02/22 01:24:39;;;;;;;13.13;7.97;;;;;;;;;;5095718;28;20032;-62
2024/02/22 01:27:07;;;;;;;9.82;7.05;;;;;;;;;;5095691;28;20025;-62
2024/02/22 01:29:32;;;;;;;12.07;8.07;;;;;;;;;;5095467;28;20466;-62
2024/02/22 01:31:58;;;;;;;11.85;6.88;;;;;;;;;;5095317;28;20039;-62
2024/02/22 01:34:23;;;;;;;14.23;9.80;;;;;;;;;;5096019;28;20428;-62
2024/02/22 01:36:49;;;;;;;10.00;6.13;;;;;;;;;;5096001;28;20066;-62
2024/02/22 01:39:14;;;;;;;15.57;7.10;;;;;;;;;;5095916;28;20119;-62
2024/02/22 01:41:40;;;;;;;9.77;7.22;;;;;;;;;;5095355;28;20035;-62
2024/02/22 01:44:05;;;;;;;8.20;6.43;;;;;;;;;;5077574;28;20107;-62
2024/02/22 01:46:32;;;;;;;10.15;6.50;;;;;;;;;;5095311;28;20036;-62
2024/02/22 01:48:58;;;;;;;9.38;5.93;;;;;;;;;;5094948;28;20016;-62
2024/02/22 01:51:23;;;;;;;10.43;6.47;;;;;;;;;;5095484;28;20031;-62
2024/02/22 01:53:49;;;;;;;8.65;5.53;;;;;;;;;;5095151;28;20055;-62
2024/02/22 01:56:16;;;;;;;9.10;5.63;;;;;;;;;;5077021;28;20036;-62
2024/02/22 01:58:41;;;;;;;9.38;5.60;;;;;;;;;;5094741;28;20028;-62
2024/02/22 02:01:17;;;;;;;9.85;6.68;;;;;;;;;;5076858;28;20031;-62
2024/02/22 02:03:45;;;;;;;11.93;8.02;;;;;;;;;;5094984;28;20016;-62
2024/02/22 02:06:10;;;;;;;9.25;6.30;;;;;;;;;;5095094;28;20028;-62
2024/02/22 02:08:36;;;;;;;9.38;6.28;;;;;;;;;;5095131;28;20024;-62
2024/02/22 02:11:02;;;;;;;8.85;5.80;;;;;;;;;;5094841;28;20103;-62
2024/02/22 02:13:28;;;;;;;10.18;6.22;;;;;;;;;;5094621;28;20052;-62
2024/02/22 02:15:54;;;;;;;8.43;5.28;;;;;;;;;;5094996;28;20024;-62
2024/02/22 02:18:20;;;;;;;8.18;5.85;;;;;;;;;;5095243;28;20093;-62
2024/02/22 02:20:57;;;;;;;8.80;5.70;;;;;;;;;;5094418;28;20466;-62
2024/02/22 02:23:41;;;;;;;7.82;5.65;;;;;;;;;;5094492;28;20036;-62
2024/02/22 02:26:09;;;;;;;10.05;6.32;;;;;;;;;;5094393;28;20020;-57
2024/02/22 02:28:34;;;;;;;9.07;5.95;;;;;;;;;;5110073;22;20423;-62
2024/02/22 02:30:59;;;;;;;8.38;5.18;;;;;;;;;;5094820;28;20077;-62
2024/02/22 02:33:57;;;;;;;8.02;5.53;;;;;;;;;;5116367;22;20101;-57
2024/02/22 02:36:23;;;;;;;7.03;5.15;;;;;;;;;;5072865;28;20051;-62
2024/02/22 02:38:48;;;;;;;8.82;4.70;;;;;;;;;;5073845;28;20383;-62
2024/02/22 02:41:13;;;;;;;8.63;4.80;;;;;;;;;;5074366;28;20442;-62
2024/02/22 02:43:39;;;;;;;5.88;4.80;;;;;;;;;;5074334;28;20450;-62
2024/02/22 02:46:04;;;;;;;7.10;4.82;;;;;;;;;;5073689;28;20382;-62
2024/02/22 02:48:30;;;;;;;8.63;4.80;;;;;;;;;;5073410;28;20115;-62
2024/02/22 02:50:55;;;;;;;6.72;4.97;;;;;;;;;;5056181;28;20104;-62
2024/02/22 02:53:22;;;;;;;5.50;4.28;;;;;;;;;;5073713;28;20471;-62
2024/02/22 02:55:47;;;;;;;7.05;4.80;;;;;;;;;;5074238;28;20075;-62
2024/02/22 02:58:13;;;;;;;9.73;4.88;;;;;;;;;;5073663;28;20430;-62
2024/02/22 03:00:39;;;;;;;8.75;4.97;;;;;;;;;;5073638;28;20356;-62
2024/02/22 03:03:04;;;;;;;7.53;5.40;;;;;;;;;;5073782;28;20059;-62
2024/02/22 03:05:30;;;;;;;9.32;5.03;;;;;;;;;;5073515;28;20032;-62
2024/02/22 03:07:55;;;;;;;6.05;4.57;;;;;;;;;;5074116;28;20119;-62
2024/02/22 03:10:20;;;;;;;8.90;5.45;;;;;;;;;;5073822;28;20028;-62
2024/02/22 03:12:46;;;;;;;9.60;5.20;;;;;;;;;;5073913;28;20538;-62
2024/02/22 03:15:13;;;;;;;9.15;5.63;;;;;;;;;;5074059;28;20040;-62
2024/02/22 03:17:39;;;;;;;6.72;4.63;;;;;;;;;;5073936;28;20028;-62
2024/02/22 03:20:09;;;;;;;8.50;5.13;;;;;;;;;;5074011;28;20374;-62
2024/02/22 03:22:39;;;;;;;8.30;4.60;;;;;;;;;;5073608;28;20398;-62
2024/02/22 03:25:05;;;;;;;6.53;4.38;;;;;;;;;;5073502;28;20031;-62
2024/02/22 03:27:32;;;;;;;6.68;4.40;;;;;;;;;;5073924;28;20107;-62
2024/02/22 03:29:58;;;;;;;7.10;4.32;;;;;;;;;;5073533;28;20039;-62
2024/02/22 03:32:23;;;;;;;6.90;4.35;;;;;;;;;;5073726;28;20020;-62
2024/02/22 03:34:49;;;;;;;7.28;4.35;;;;;;;;;;5074316;28;20040;-62
2024/02/22 03:37:14;;;;;;;7.20;4.50;;;;;;;;;;5076603;28;20043;-62
2024/02/22 03:39:41;;;;;;;7.68;4.30;;;;;;;;;;5076435;28;20048;-62
2024/02/22 03:42:12;;;;;;;6.47;4.75;;;;;;;;;;5058527;28;20044;-62
2024/02/22 03:44:38;;;;;;;8.13;5.20;;;;;;;;;;5076242;28;20036;-62
2024/02/22 03:47:03;;;;;;;8.18;4.57;;;;;;;;;;5076088;28;20029;-62
2024/02/22 03:49:29;;;;;;;9.00;5.75;;;;;;;;;;5076112;28;20096;-61
2024/02/22 03:51:54;;;;;;;8.07;5.95;;;;;;;;;;5076276;28;20064;-62
2024/02/22 03:54:19;;;;;;;8.07;5.82;;;;;;;;;;5076824;28;20029;-62
2024/02/22 03:56:45;;;;;;;10.18;6.28;;;;;;;;;;5058251;28;20044;-62
2024/02/22 03:59:10;;;;;;;8.45;5.63;;;;;;;;;;5075884;28;20390;-62
2024/02/22 04:01:36;;;;;;;7.18;4.97;;;;;;;;;;5075350;28;20032;-62
2024/02/22 04:04:01;;;;;;;8.63;5.47;;;;;;;;;;5076006;28;20029;-62
2024/02/22 04:06:27;;;;;;;7.43;6.20;;;;;;;;;;5076152;28;20059;-62
2024/02/22 04:08:52;;;;;;;12.57;8.27;;;;;;;;;;5075447;28;20028;-61
2024/02/22 04:11:18;;;;;;;23.92;17.10;;;;;;;;;;5075861;28;20416;-62
2024/02/22 04:13:43;;;;;;;18.45;13.10;;;;;;;;;;5075418;28;20054;-62
2024/02/22 04:16:08;;;;;;;22.15;15.45;;;;;;;;;;5075314;28;20382;-62
2024/02/22 04:18:34;;;;;;;23.70;17.25;;;;;;;;;;5075888;28;20052;-62
2024/02/22 04:21:00;;;;;;;13.98;10.50;;;;;;;;;;5057838;28;20066;-62
2024/02/22 04:23:26;;;;;;;15.23;11.43;;;;;;;;;;5075128;28;20492;-62
2024/02/22 04:25:51;;;;;;;19.45;13.40;;;;;;;;;;5058054;28;20105;-62
2024/02/22 04:28:18;;;;;;;17.15;11.70;;;;;;;;;;5075309;28;20035;-62
2024/02/22 04:30:47;;;;;;;13.55;9.60;;;;;;;;;;5075583;28;20083;-61
2024/02/22 04:33:13;;;;;;;7.07;5.28;;;;;;;;;;5057565;28;20032;-62
2024/02/22 04:35:42;;;;;;;6.72;4.80;;;;;;;;;;5035658;28;1156159;-61
2024/02/22 04:38:08;;;;;;;6.13;4.65;;;;;;;;;;5076127;28;20054;-61
2024/02/22 04:40:34;;;;;;;5.80;4.70;;;;;;;;;;5076710;28;20347;-62
2024/02/22 04:42:59;;;;;;;5.57;4.10;;;;;;;;;;5076689;28;20028;-62
2024/02/22 04:45:25;;;;;;;5.40;4.05;;;;;;;;;;5075868;28;20028;-62
2024/02/22 04:47:50;;;;;;;8.32;6.25;;;;;;;;;;5075207;28;20021;-61
2024/02/22 04:50:16;;;;;;;6.18;5.38;;;;;;;;;;5076476;28;20028;-62
2024/02/22 04:52:42;;;;;;;7.55;6.10;;;;;;;;;;5058484;28;20028;-62
2024/02/22 04:55:08;;;;;;;5.53;5.00;;;;;;;;;;5075606;28;20383;-62
2024/02/22 04:57:35;;;;;;;5.88;4.45;;;;;;;;;;5074628;28;20039;-62
2024/02/22 05:00:00;;;;;;;5.05;3.63;;;;;;;;;;5074399;28;20035;-62
2024/02/22 05:02:26;;;;;;;7.15;4.20;;;;;;;;;;5074366;28;20036;-62
2024/02/22 05:04:52;;;;;;;7.43;4.55;;;;;;;;;;5074613;28;20031;-61
2024/02/22 05:07:17;;;;;;;8.10;4.70;;;;;;;;;;5073917;28;20381;-62
2024/02/22 05:09:43;;;;;;;12.77;7.03;;;;;;;;;;5073875;28;20040;-61
2024/02/22 05:12:09;;;;;;;8.82;5.40;;;;;;;;;;5075348;28;20032;-62
2024/02/22 05:14:34;;;;;;;7.07;5.28;;;;;;;;;;5057626;28;20136;-62
2024/02/22 05:17:00;;;;;;;4.70;3.92;;;;;;;;;;5058238;28;20029;-61
2024/02/22 05:19:26;;;;;;;6.05;3.88;;;;;;;;;;5057889;28;20362;-61
2024/02/22 05:21:51;;;;;;;5.22;3.55;;;;;;;;;;5075057;28;20029;-61
2024/02/22 05:24:20;;;;;;;5.45;4.47;;;;;;;;;;5075050;28;20052;-61
2024/02/22 05:26:45;;;;;;;10.45;6.43;;;;;;;;;;5075807;28;20043;-61
2024/02/22 05:29:10;;;;;;;13.68;9.38;;;;;;;;;;5075625;28;20025;-61
2024/02/22 05:31:36;;;;;;;13.48;9.13;;;;;;;;;;5075860;28;20083;-61
2024/02/22 05:34:02;;;;;;;14.13;9.07;;;;;;;;;;5075204;28;20072;-63
2024/02/22 05:36:27;;;;;;;16.88;9.50;;;;;;;;;;5075343;28;20073;-67
2024/02/22 05:38:52;;;;;;;21.85;11.45;;;;;;;;;;5075141;28;20024;-64
2024/02/22 05:41:18;;;;;;;7.20;5.68;;;;;;;;;;5075577;28;20198;-64
2024/02/22 05:43:43;;;;;;;6.10;4.18;;;;;;;;;;5075445;28;20093;-63
2024/02/22 05:46:09;;;;;;;7.05;4.45;;;;;;;;;;5075409;28;20060;-63
2024/02/22 05:48:34;;;;;;;7.10;5.00;;;;;;;;;;5074897;28;20470;-63
2024/02/22 05:51:00;;;;;;;9.98;6.45;;;;;;;;;;5056809;28;20071;-63
2024/02/22 05:53:25;;;;;;;21.20;11.75;;;;;;;;;;5056976;28;20024;-63
2024/02/22 05:55:51;;;;;;;16.10;9.32;;;;;;;;;;5057144;28;20090;-63
2024/02/22 05:58:17;;;;;;;12.60;8.15;;;;;;;;;;5074652;28;20024;-63
2024/02/22 06:00:46;;;;;;;21.10;11.50;;;;;;;;;;5074761;28;20494;-63
2024/02/22 06:03:11;;;;;;;28.23;15.13;;;;;;;;;;5074604;28;20028;-63
2024/02/22 06:05:37;;;;;;;34.63;20.52;;;;;;;;;;5074005;28;20073;-63
2024/02/22 06:08:05;;;;;;;41.92;24.90;;;;;;;;;;5074964;28;20459;-63
2024/02/22 06:10:31;;;;;;;34.60;21.77;;;;;;;;;;5074475;28;20101;-63
2024/02/22 06:12:56;;;;;;;26.13;16.23;;;;;;;;;;5074726;28;20075;-63
2024/02/22 06:15:22;;;;;;;13.10;9.30;;;;;;;;;;5074839;28;20554;-62
2024/02/22 06:17:47;;;;;;;10.23;7.30;;;;;;;;;;5074108;28;20043;-63
2024/02/22 06:20:13;;;;;;;13.23;8.80;;;;;;;;;;5074107;28;20025;-63
2024/02/22 06:22:39;;;;;;;11.85;7.63;;;;;;;;;;5074230;28;20471;-63
2024/02/22 06:25:05;;;;;;;9.15;6.68;;;;;;;;;;5074035;28;20490;-63
2024/02/22 06:27:31;;;;;;;14.88;7.68;;;;;;;;;;5074070;28;20545;-63
2024/02/22 06:29:57;;;;;;;10.27;5.90;;;;;;;;;;5073823;28;20033;-63
2024/02/22 06:32:23;;;;;;;7.28;4.90;;;;;;;;;;5074293;28;20035;-63
2024/02/22 06:34:49;;;;;;;7.07;4.97;;;;;;;;;;5055294;28;20072;-63
2024/02/22 06:37:15;;;;;;;10.32;6.70;;;;;;;;;;5072941;28;20501;-63
2024/02/22 06:39:40;;;;;;;16.63;9.18;;;;;;;;;;5055021;28;20070;-63
2024/02/22 06:42:06;;;;;;;19.77;11.13;;;;;;;;;;5072236;28;20406;-63
2024/02/22 06:44:31;;;;;;;11.70;8.40;;;;;;;;;;5071946;28;20585;-63
2024/02/22 06:46:57;;;;;;;17.08;10.95;;;;;;;;;;5073054;28;20063;-63
2024/02/22 06:49:23;;;;;;;117.38;77.55;;;;;;;;;;5073019;28;20032;-63
2024/02/22 06:51:48;;;;;;;17.58;12.10;;;;;;;;;;5071978;28;20032;-63
2024/02/22 06:54:14;;;;;;;47.05;25.98;;;;;;;;;;5072594;28;20017;-63
2024/02/22 06:56:40;;;;;;;44.45;32.50;;;;;;;;;;5073671;28;20070;-63
2024/02/22 06:59:06;;;;;;;20.70;15.45;;;;;;;;;;5073912;28;20036;-63
2024/02/22 07:01:33;;;;;;;14.32;9.57;;;;;;;;;;5073877;28;20047;-63
2024/02/22 07:03:58;;;;;;;10.60;7.47;;;;;;;;;;5074074;28;20009;-63
2024/02/22 07:06:23;;;;;;;10.45;6.60;;;;;;;;;;5073647;28;20386;-63
2024/02/22 07:08:49;;;;;;;9.90;6.80;;;;;;;;;;5073158;28;20451;-63
2024/02/22 07:11:14;;;;;;;12.70;8.77;;;;;;;;;;5073659;28;20037;-63
2024/02/22 07:13:40;;;;;;;16.50;9.40;;;;;;;;;;5073967;28;20031;-63
2024/02/22 07:16:07;;;;;;;25.60;19.00;;;;;;;;;;5073525;28;20425;-63
2024/02/22 07:18:32;;;;;;;25.35;16.02;;;;;;;;;;5055468;28;20072;-63
2024/02/22 07:20:58;;;;;;;36.85;22.92;;;;;;;;;;5073439;28;20035;-63
2024/02/22 07:23:23;;;;;;;63.15;35.25;;;;;;;;;;5073781;28;20075;-63
2024/02/22 07:25:48;;;;;;;38.38;19.73;;;;;;;;;;5073869;28;20017;-63
2024/02/22 07:28:15;;;;;;;15.27;8.40;;;;;;;;;;5073579;28;20033;-63
2024/02/22 07:30:41;;;;;;;14.48;8.20;;;;;;;;;;5073870;28;20032;-63
2024/02/22 07:33:07;;;;;;;16.42;9.38;;;;;;;;;;5074004;28;20115;-63
2024/02/22 07:35:33;;;;;;;23.08;11.90;;;;;;;;;;5055406;28;20126;-63
2024/02/22 07:37:58;;;;;;;21.48;12.43;;;;;;;;;;5055290;28;20039;-63
2024/02/22 07:40:23;;;;;;;22.83;14.00;;;;;;;;;;5073471;28;20031;-63
2024/02/22 07:42:49;;;;;;;35.15;23.73;;;;;;;;;;5073203;28;20477;-63
2024/02/22 07:45:14;;;;;;;35.08;19.05;;;;;;;;;;5055325;28;20028;-63
2024/02/22 07:47:40;;;;;;;39.70;18.05;;;;;;;;;;5073586;28;20028;-63
2024/02/22 07:50:10;;;;;;;77.00;36.63;;;;;;;;;;5055166;28;20068;-63
2024/02/22 07:52:40;;;;;;;28.63;16.88;;;;;;;;;;5073778;28;20481;-63
2024/02/22 07:55:06;;;;;;;31.47;16.17;;;;;;;;;;5073416;28;20116;-63
2024/02/22 07:57:31;;;;;;;139.70;72.32;;;;;;;;;;5073356;28;20313;-63
2024/02/22 07:59:57;;;;;;;72.55;37.97;;;;;;;;;;5073097;28;20120;-63
2024/02/22 08:02:23;;;;;;;34.35;19.95;;;;;;;;;;5073516;28;20043;-63
2024/02/22 08:04:50;;;;;;;14.90;9.23;;;;;;;;;;5073229;28;20133;-62
2024/02/22 08:07:15;;;;;;;7.20;5.10;;;;;;;;;;5073396;28;20033;-63
2024/02/22 08:09:41;;;;;;;6.00;4.10;;;;;;;;;;5073276;28;20021;-63
2024/02/22 08:12:06;;;;;;;4.68;4.03;;;;;;;;;;5073247;28;20036;-63
2024/02/22 08:14:32;;;;;;;4.78;3.30;;;;;;;;;;5073279;28;20107;-63
2024/02/22 08:16:57;;;;;;;2.78;2.58;;;;;;;;;;5073459;28;20032;-63
2024/02/22 08:19:22;;;;;;;3.90;3.50;;;;;;;;;;5072883;28;20021;-63
2024/02/22 08:21:48;;;;;;;2.92;2.70;;;;;;;;;;5075493;28;20085;-63
2024/02/22 08:24:13;;;;;;;3.17;2.80;;;;;;;;;;5076713;28;20028;-63
2024/02/22 08:26:39;;;;;;;4.28;3.17;;;;;;;;;;5076670;28;20021;-63
2024/02/22 08:29:04;;;;;;;4.10;3.67;;;;;;;;;;5076358;28;20399;-63
2024/02/22 08:31:29;;;;;;;4.63;4.20;;;;;;;;;;5076540;28;20055;-63
2024/02/22 08:33:55;;;;;;;8.25;5.25;;;;;;;;;;5058085;28;20033;-63
2024/02/22 08:36:21;;;;;;;8.15;5.95;;;;;;;;;;5075844;28;20028;-63
2024/02/22 08:38:46;;;;;;;6.55;5.10;;;;;;;;;;5076464;28;20032;-63
2024/02/22 08:41:12;;;;;;;8.20;5.75;;;;;;;;;;5058580;28;20031;-63
2024/02/22 08:43:37;;;;;;;9.73;5.60;;;;;;;;;;5076255;28;20060;-63
2024/02/22 08:46:03;;;;;;;7.60;5.28;;;;;;;;;;5076590;28;20115;-63
2024/02/22 08:48:30;;;;;;;9.95;6.07;;;;;;;;;;5058118;28;20028;-63
2024/02/22 08:50:57;;;;;;;9.93;6.32;;;;;;;;;;5075938;28;20082;-63
2024/02/22 08:53:23;;;;;;;8.00;5.68;;;;;;;;;;5076204;28;20017;-63
2024/02/22 08:55:49;;;;;;;6.72;5.05;;;;;;;;;;5075749;28;20060;-63
2024/02/22 08:58:15;;;;;;;6.13;4.90;;;;;;;;;;5075869;28;20103;-63
2024/02/22 09:00:40;;;;;;;7.05;5.38;;;;;;;;;;5075822;28;20097;-63
2024/02/22 09:03:05;;;;;;;9.32;5.38;;;;;;;;;;5075643;28;20039;-63
2024/02/22 09:05:36;;;;;;;6.45;4.85;;;;;;;;;;5075823;28;20078;-63
2024/02/22 09:08:03;;;;;;;5.80;4.68;;;;;;;;;;5057807;28;20517;-63
2024/02/22 09:10:53;;;;;;;6.88;5.15;;;;;;;;;;5070381;28;20031;-63
2024/02/22 09:13:22;;;;;;;4.95;3.33;;;;;;;;;;5058007;28;20047;-63
2024/02/22 09:15:49;;;;;;;4.80;3.15;;;;;;;;;;5075439;28;20078;-63
2024/02/22 09:18:17;;;;;;;5.03;3.60;;;;;;;;;;5040815;28;20477;-63
2024/02/22 09:20:48;;;;;;;3.38;2.80;;;;;;;;;;5057035;28;20068;-63
2024/02/22 09:23:19;;;;;;;3.63;3.25;;;;;;;;;;5057462;28;20048;-63
2024/02/22 09:25:46;;;;;;;4.07;3.17;;;;;;;;;;5075336;28;20078;-63
2024/02/22 09:28:15;;;;;;;5.85;3.65;;;;;;;;;;5057365;28;20024;-63
2024/02/22 09:30:41;;;;;;;6.82;3.60;;;;;;;;;;5057285;28;20424;-63
2024/02/22 09:33:07;;;;;;;6.53;3.38;;;;;;;;;;5040236;28;20040;-63
2024/02/22 09:35:41;;;;;;;7.20;3.72;;;;;;;;;;5074659;28;20047;-63
2024/02/22 09:38:07;;;;;;;5.93;3.53;;;;;;;;;;5075323;28;20028;-63
2024/02/22 09:40:37;;;;;;;6.43;3.88;;;;;;;;;;5075067;28;20035;-63
2024/02/22 09:43:08;;;;;;;5.05;3.33;;;;;;;;;;5075058;28;20032;-63
2024/02/22 09:45:36;;;;;;;6.53;3.42;;;;;;;;;;5056996;28;20025;-63
2024/02/22 09:48:03;;;;;;;5.47;3.47;;;;;;;;;;5074859;28;20027;-63
2024/02/22 09:50:28;;;;;;;6.03;3.42;;;;;;;;;;5057196;28;20032;-63
2024/02/22 09:52:55;;;;;;;6.68;3.75;;;;;;;;;;5074838;28;20386;-63
2024/02/22 09:55:21;;;;;;;11.45;4.88;;;;;;;;;;5057180;28;20028;-63
2024/02/22 09:57:48;;;;;;;5.80;4.10;;;;;;;;;;5074745;28;20089;-63
2024/02/22 10:00:15;;;;;;;8.02;4.35;;;;;;;;;;5056831;28;20068;-63
2024/02/22 10:02:44;;;;;;;4.13;3.25;;;;;;;;;;5074514;28;20017;-63
2024/02/22 10:05:09;;;;;;;6.97;3.33;;;;;;;;;;5074542;28;20500;-63
2024/02/22 10:07:35;;;;;;;2.60;2.35;;;;;;;;;;5074394;28;20112;-63
2024/02/22 10:10:01;;;;;;;2.50;2.30;;;;;;;;;;5074611;28;20025;-63
2024/02/22 10:12:26;;;;;;;3.47;3.17;;;;;;;;;;5074453;28;20042;-63
2024/02/22 10:14:52;;;;;;;8.27;4.90;;;;;;;;;;5074531;28;20037;-63
2024/02/22 10:17:21;;;;;;;6.88;4.32;;;;;;;;;;5074391;28;20085;-63
2024/02/22 10:20:00;;;;;;;3.70;2.45;;;;;;;;;;5056288;28;20051;-63
2024/02/22 10:22:27;;;;;;;3.70;2.92;;;;;;;;;;5056540;28;20089;-63
2024/02/22 10:24:52;;;;;;;1.98;1.63;;;;;;;;;;5039702;28;20097;-63
2024/02/22 10:27:22;;;;;;;3.42;2.35;;;;;;;;;;5074066;28;20471;-63
2024/02/22 10:29:48;;;;;;;3.00;2.10;;;;;;;;;;5074062;28;20025;-63
2024/02/22 10:32:20;;;;;;;3.03;2.22;;;;;;;;;;5073993;28;20028;-63
2024/02/22 10:34:48;;;;;;;3.55;2.40;;;;;;;;;;5073906;28;20611;-63
2024/02/22 10:37:13;;;;;;;5.55;3.38;;;;;;;;;;5055938;28;20036;-63
2024/02/22 10:39:39;;;;;;;7.60;3.95;;;;;;;;;;5073929;28;20032;-63
2024/02/22 10:42:05;;;;;;;4.50;3.20;;;;;;;;;;5055889;28;20060;-63
2024/02/22 10:44:31;;;;;;;9.80;4.72;;;;;;;;;;5055902;28;20051;-63
2024/02/22 10:46:57;;;;;;;7.30;3.58;;;;;;;;;;5055812;28;20119;-63
2024/02/22 10:49:24;;;;;;;4.03;2.95;;;;;;;;;;5073909;28;20043;-63
2024/02/22 10:51:52;;;;;;;5.43;2.63;;;;;;;;;;5073595;28;20028;-63
2024/02/22 10:54:18;;;;;;;3.88;3.03;;;;;;;;;;5073673;28;20424;-63
2024/02/22 10:56:45;;;;;;;2.22;2.08;;;;;;;;;;5073682;28;20036;-63
2024/02/22 10:59:13;;;;;;;2.67;2.42;;;;;;;;;;5073685;28;20142;-63
2024/02/22 11:01:38;;;;;;;3.65;2.72;;;;;;;;;;5073552;28;20428;-63
2024/02/22 11:04:04;;;;;;;4.35;3.63;;;;;;;;;;5073588;28;20074;-63
2024/02/22 11:06:39;;;;;;;3.05;2.75;;;;;;;;;;5073595;28;20430;-60
2024/02/22 11:09:14;;;;;;;3.40;2.28;;;;;;;;;;5073676;28;20056;-60
2024/02/22 11:11:42;;;;;;;3.15;2.47;;;;;;;;;;5073354;28;20061;-60
2024/02/22 11:14:08;;;;;;;3.53;2.38;;;;;;;;;;5073456;28;20052;-60
2024/02/22 11:16:34;;;;;;;4.38;3.35;;;;;;;;;;5073709;28;20067;-60
2024/02/22 11:19:08;;;;;;;3.75;2.47;;;;;;;;;;5073623;28;20107;-60
2024/02/22 11:21:34;;;;;;;2.92;2.10;;;;;;;;;;5073621;28;20083;-60
2024/02/22 11:26:41;;;;;;;3.13;2.45;;;;;;;;;;5071841;28;20060;-60
2024/02/22 11:29:10;;;;;;;4.32;3.47;;;;;;;;;;5128182;22;20401;-61
2024/02/22 11:31:37;;;;;;;5.55;3.92;;;;;;;;;;5120193;22;20440;-62
2024/02/22 11:34:35;;;;;;;4.43;3.58;;;;;;;;;;5100474;22;20052;-62
2024/02/22 11:37:11;;;;;;;2.22;2.08;;;;;;;;;;5105249;22;20067;-60
2024/02/22 11:39:37;;;;;;;2.80;2.38;;;;;;;;;;5071748;28;20508;-63
2024/02/22 11:42:03;;;;;;;2.60;2.40;;;;;;;;;;5055237;28;20040;-63
2024/02/22 11:44:28;;;;;;;2.05;1.95;;;;;;;;;;5073532;28;20435;-63
2024/02/22 11:46:55;;;;;;;2.28;1.70;;;;;;;;;;5055287;28;20123;-63
2024/02/22 11:49:21;;;;;;;2.20;1.95;;;;;;;;;;5073525;28;20048;-63
2024/02/22 11:51:47;;;;;;;2.80;2.20;;;;;;;;;;5073185;28;20043;-63
2024/02/22 11:54:16;;;;;;;2.65;2.20;;;;;;;;;;5073108;28;20496;-63
2024/02/22 11:56:42;;;;;;;4.18;2.28;;;;;;;;;;5076107;28;20021;-63
2024/02/22 11:59:08;;;;;;;3.90;2.28;;;;;;;;;;5077453;28;20033;-63
2024/02/22 12:01:35;;;;;;;3.70;2.20;;;;;;;;;;5077055;28;20028;-63
2024/02/22 12:04:01;;;;;;;4.57;2.22;;;;;;;;;;5077345;28;20013;-63
2024/02/22 12:06:26;;;;;;;2.42;2.10;;;;;;;;;;5077289;28;20029;-63
2024/02/22 12:08:54;;;;;;;3.30;2.17;;;;;;;;;;5076738;28;20033;-63
2024/02/22 12:11:19;;;;;;;4.95;2.70;;;;;;;;;;5077259;28;20032;-63
2024/02/22 12:13:55;;;;;;;4.68;2.97;;;;;;;;;;5076877;28;20032;-63
2024/02/22 12:16:20;;;;;;;6.88;3.38;;;;;;;;;;5075398;28;20086;-63
2024/02/22 12:18:47;;;;;;;4.90;3.08;;;;;;;;;;5077105;28;20025;-63
2024/02/22 12:21:13;;;;;;;2.80;1.92;;;;;;;;;;5077061;28;20031;-63
2024/02/22 12:23:39;;;;;;;2.40;2.13;;;;;;;;;;5076406;28;20115;-63
2024/02/22 12:26:08;;;;;;;2.20;1.90;;;;;;;;;;5058609;28;20051;-63
2024/02/22 12:28:35;;;;;;;2.55;1.92;;;;;;;;;;5058832;28;20033;-63
2024/02/22 12:31:01;;;;;;;1.95;1.65;;;;;;;;;;5058504;28;20024;-63
2024/02/22 12:33:27;;;;;;;1.92;1.83;;;;;;;;;;5058505;28;20025;-63
2024/02/22 12:35:52;;;;;;;2.08;1.98;;;;;;;;;;5076513;28;20043;-63
2024/02/22 12:38:18;;;;;;;3.30;2.13;;;;;;;;;;5086294;28;20050;-63
2024/02/22 12:40:44;;;;;;;3.78;2.58;;;;;;;;;;5096425;28;20047;-63
2024/02/22 12:43:17;;;;;;;2.63;2.20;;;;;;;;;;5096319;28;20493;-63
2024/02/22 12:45:42;;;;;;;3.42;1.75;;;;;;;;;;5078249;28;20117;-63
2024/02/22 12:48:08;;;;;;;3.13;2.55;;;;;;;;;;5096269;28;20059;-63
2024/02/22 12:50:33;;;;;;;1.88;1.70;;;;;;;;;;5078399;28;20103;-63
2024/02/22 12:53:02;;;;;;;2.40;1.83;;;;;;;;;;5096774;28;20093;-63
2024/02/22 12:55:28;;;;;;;2.28;2.05;;;;;;;;;;5095377;28;20099;-63
2024/02/22 12:57:53;;;;;;;2.13;1.73;;;;;;;;;;5096642;28;20116;-63
2024/02/22 13:00:19;;;;;;;2.38;2.17;;;;;;;;;;5096093;28;20031;-63
2024/02/22 13:02:44;;;;;;;2.05;1.85;;;;;;;;;;5095927;28;20035;-63
2024/02/22 13:05:10;;;;;;;2.55;2.03;;;;;;;;;;5078626;28;20032;-63
2024/02/22 13:07:36;;;;;;;2.40;2.10;;;;;;;;;;5094705;28;20020;-63
2024/02/22 13:10:02;;;;;;;3.80;2.30;;;;;;;;;;5095999;28;20525;-63
2024/02/22 13:12:27;;;;;;;4.15;2.22;;;;;;;;;;5077822;28;20094;-63
2024/02/22 13:14:53;;;;;;;4.80;2.45;;;;;;;;;;5096025;28;20039;-63
2024/02/22 13:17:21;;;;;;;2.78;2.28;;;;;;;;;;5095802;28;20545;-63
2024/02/22 13:19:46;;;;;;;2.70;2.50;;;;;;;;;;5078205;28;20032;-63
2024/02/22 13:22:12;;;;;;;2.42;2.22;;;;;;;;;;5096112;28;20115;-63
2024/02/22 13:24:38;;;;;;;2.55;2.35;;;;;;;;;;5077801;28;20055;-62
2024/02/22 13:27:04;;;;;;;2.42;2.22;;;;;;;;;;5077582;28;20028;-63
2024/02/22 13:29:29;;;;;;;3.08;2.30;;;;;;;;;;5096061;28;20016;-63
2024/02/22 13:31:57;;;;;;;2.28;2.08;;;;;;;;;;5095412;28;20032;-63
2024/02/22 13:34:23;;;;;;;2.10;1.90;;;;;;;;;;5095901;28;20055;-63
2024/02/22 13:36:48;;;;;;;3.00;2.45;;;;;;;;;;5095926;28;20036;-63
2024/02/22 13:39:14;;;;;;;2.95;1.85;;;;;;;;;;5095308;28;20089;-63
2024/02/22 13:41:40;;;;;;;3.63;2.65;;;;;;;;;;5095204;28;20112;-63
2024/02/22 13:44:06;;;;;;;3.90;2.92;;;;;;;;;;5077433;28;20032;-63
2024/02/22 13:46:31;;;;;;;3.60;2.67;;;;;;;;;;5095732;28;20422;-63
2024/02/22 13:48:56;;;;;;;0.80;0.70;;;;;;;;;;5095350;28;20016;-62
2024/02/22 13:51:22;;;;;;;3.92;3.22;;;;;;;;;;5095348;28;20343;-63
2024/02/22 13:53:52;;;;;;;2.97;2.47;;;;;;;;;;5076858;28;20470;-63
2024/02/22 13:56:17;;;;;;;3.83;2.95;;;;;;;;;;5076801;28;20089;-63
2024/02/22 13:58:43;;;;;;;3.40;2.72;;;;;;;;;;5094863;28;20377;-63
2024/02/22 14:01:08;;;;;;;5.43;3.53;;;;;;;;;;5095468;28;20028;-63
2024/02/22 14:03:34;;;;;;;3.42;3.13;;;;;;;;;;5086950;28;20066;-61
2024/02/22 14:05:59;;;;;;;3.13;2.50;;;;;;;;;;5074713;28;20498;-61
2024/02/22 14:08:25;;;;;;;3.90;3.08;;;;;;;;;;5074742;28;20375;-62
2024/02/22 14:10:50;;;;;;;3.58;3.28;;;;;;;;;;5073147;28;20035;-61
2024/02/22 14:13:21;;;;;;;4.30;3.58;;;;;;;;;;5074843;28;20029;-63
2024/02/22 14:15:48;;;;;;;3.22;2.92;;;;;;;;;;5072682;28;20241;-62
2024/02/22 14:18:14;;;;;;;4.05;3.42;;;;;;;;;;5072893;28;20182;-62
2024/02/22 14:20:42;;;;;;;3.75;2.30;;;;;;;;;;5094294;28;20059;-61
2024/02/22 14:23:07;;;;;;;2.63;2.42;;;;;;;;;;5094526;28;20028;-62
2024/02/22 14:25:35;;;;;;;3.33;2.58;;;;;;;;;;5094889;28;20089;-62
2024/02/22 14:28:01;;;;;;;3.20;2.90;;;;;;;;;;5075810;28;20016;-62
2024/02/22 14:30:26;;;;;;;5.63;3.40;;;;;;;;;;5093120;28;20074;-62
2024/02/22 14:32:53;;;;;;;5.40;3.47;;;;;;;;;;5093774;28;20024;-62
2024/02/22 14:35:18;;;;;;;3.65;3.35;;;;;;;;;;5094590;28;20020;-62